Time;durP1;ratioP1;P1;durP2;ratioP2;P2;SDS_P1;SDS_P2;PMS_P1;PMS_P2;Temp;Humidity;BMP_temperature;BMP_pressure;BME280_temperature;BME280_humidity;BME280_pressure;Samples;Min_cycle;Max_cycle;Signal;HPM_P1;HPM_P2
2022/03/03 00:00:47;;;;;;;34.50;27.20;;;9.20;70.80;;;;;;10903815;32;20015;-74
2022/03/03 00:06:50;;;;;;;33.22;25.48;;;9.20;70.60;;;;;;10906367;32;20054;-74
2022/03/03 00:12:52;;;;;;;37.55;28.15;;;9.20;70.90;;;;;;10906196;32;20042;-74
2022/03/03 00:18:54;;;;;;;31.23;22.52;;;9.20;70.70;;;;;;10905931;32;20472;-74
2022/03/03 00:24:56;;;;;;;27.33;19.12;;;9.10;70.70;;;;;;10905366;32;20020;-73
2022/03/03 00:30:58;;;;;;;41.53;28.77;;;8.90;70.80;;;;;;10905594;32;20050;-74
2022/03/03 00:37:14;;;;;;;26.20;20.20;;;8.90;71.00;;;;;;10906135;32;20063;-73
2022/03/03 00:43:16;;;;;;;25.83;20.33;;;8.80;70.90;;;;;;10902793;32;20045;-73
2022/03/03 00:49:18;;;;;;;27.87;22.25;;;8.80;71.00;;;;;;10904956;32;20027;-72
2022/03/03 00:55:22;;;;;;;24.70;20.20;;;8.80;71.00;;;;;;10904489;32;20074;-73
2022/03/03 01:01:24;;;;;;;34.30;24.17;;;8.90;71.10;;;;;;10904819;32;20062;-73
2022/03/03 01:07:28;;;;;;;23.45;18.62;;;8.80;70.90;;;;;;10904621;32;20031;-73
2022/03/03 01:13:31;;;;;;;25.33;18.83;;;8.70;71.00;;;;;;10904551;32;20309;-73
2022/03/03 01:19:33;;;;;;;23.42;18.58;;;8.70;71.00;;;;;;10904276;32;20020;-73
2022/03/03 01:25:36;;;;;;;28.45;21.20;;;8.70;71.10;;;;;;10904272;32;20433;-73
2022/03/03 01:31:38;;;;;;;26.58;20.48;;;8.70;71.60;;;;;;10903988;32;20053;-73
2022/03/03 01:37:40;;;;;;;26.55;20.85;;;8.70;71.40;;;;;;10904420;32;20020;-72
2022/03/03 01:43:42;;;;;;;27.20;19.25;;;8.50;71.40;;;;;;10904252;32;20097;-72
2022/03/03 01:49:45;;;;;;;35.05;25.58;;;8.50;71.50;;;;;;10904096;32;20063;-72
2022/03/03 01:55:49;;;;;;;29.27;20.80;;;8.50;71.90;;;;;;10903090;32;20015;-71
2022/03/03 02:01:52;;;;;;;36.50;26.55;;;8.50;71.70;;;;;;10903793;32;20320;-72
2022/03/03 02:07:54;;;;;;;27.85;20.73;;;8.40;71.90;;;;;;10909479;32;20050;-72
2022/03/03 02:13:56;;;;;;;24.30;17.05;;;8.40;71.70;;;;;;10910490;32;20050;-73
2022/03/03 02:20:04;;;;;;;37.40;30.10;;;8.20;71.90;;;;;;10910310;32;20034;-73
2022/03/03 02:26:15;;;;;;;29.60;22.55;;;8.20;71.90;;;;;;10909331;32;20046;-73
2022/03/03 02:32:18;;;;;;;26.70;19.62;;;8.30;71.70;;;;;;10905267;32;20054;-73
2022/03/03 02:38:20;;;;;;;33.65;25.10;;;8.20;71.70;;;;;;10909792;32;20062;-73
2022/03/03 02:44:22;;;;;;;34.47;24.80;;;8.20;71.90;;;;;;10909526;32;20015;-73
2022/03/03 02:50:25;;;;;;;38.35;26.70;;;8.20;72.30;;;;;;10909196;32;20096;-73
2022/03/03 02:56:27;;;;;;;35.92;28.60;;;8.20;72.10;;;;;;10906513;32;20012;-73
2022/03/03 03:02:29;;;;;;;36.58;25.85;;;8.30;72.10;;;;;;10907945;32;20023;-73
2022/03/03 03:08:33;;;;;;;38.97;30.35;;;8.20;72.00;;;;;;10908102;32;20019;-73
2022/03/03 03:14:35;;;;;;;37.58;24.45;;;8.20;72.10;;;;;;10908069;32;20334;-73
2022/03/03 03:20:43;;;;;;;29.60;21.27;;;8.20;72.10;;;;;;10905428;32;20024;-73
2022/03/03 03:26:45;;;;;;;33.47;26.23;;;8.10;72.00;;;;;;10907941;32;20054;-73
2022/03/03 03:32:47;;;;;;;33.58;25.33;;;8.00;72.40;;;;;;10907848;32;20288;-73
2022/03/03 03:38:49;;;;;;;32.85;25.02;;;8.00;72.40;;;;;;10908258;32;20339;-73
2022/03/03 03:44:51;;;;;;;42.17;29.15;;;8.10;72.40;;;;;;10944541;32;20046;-73
2022/03/03 03:50:53;;;;;;;39.03;28.58;;;8.10;72.40;;;;;;10944889;32;20049;-73
2022/03/03 03:56:55;;;;;;;33.35;23.52;;;8.10;72.50;;;;;;10944752;32;20084;-73
2022/03/03 04:02:57;;;;;;;29.70;22.87;;;8.00;72.40;;;;;;10944422;32;20019;-73
2022/03/03 04:08:59;;;;;;;35.55;25.55;;;8.00;72.40;;;;;;10944139;32;20019;-73
2022/03/03 04:15:03;;;;;;;30.10;22.60;;;7.90;72.60;;;;;;10943950;32;20414;-73
2022/03/03 04:21:05;;;;;;;25.75;19.98;;;7.80;72.60;;;;;;10943730;32;20050;-74
2022/03/03 04:27:07;;;;;;;33.10;24.20;;;7.70;72.70;;;;;;10942947;32;20061;-73
2022/03/03 04:33:09;;;;;;;31.90;25.33;;;7.60;72.90;;;;;;10943483;32;20015;-74
2022/03/03 04:39:11;;;;;;;30.37;23.00;;;7.60;73.40;;;;;;10938809;32;20022;-73
2022/03/03 04:45:13;;;;;;;32.42;24.30;;;7.60;73.30;;;;;;10941986;32;20314;-73
2022/03/03 04:51:15;;;;;;;32.97;23.65;;;7.60;73.50;;;;;;10938525;32;20081;-73
2022/03/03 04:57:17;;;;;;;40.75;29.20;;;7.50;73.30;;;;;;10940847;32;20046;-73
2022/03/03 05:03:20;;;;;;;47.83;33.50;;;7.60;73.50;;;;;;10942530;32;20019;-73
2022/03/03 05:09:22;;;;;;;32.70;26.92;;;7.60;73.60;;;;;;10942348;32;20323;-73
2022/03/03 05:15:24;;;;;;;36.13;28.52;;;7.40;73.40;;;;;;10944606;27;20446;-73
2022/03/03 05:21:37;;;;;;;31.98;23.48;;;7.30;73.70;;;;;;10942102;32;20053;-72
2022/03/03 05:28:00;;;;;;;30.80;22.90;;;7.20;73.70;;;;;;10941898;32;20023;-73
2022/03/03 05:34:03;;;;;;;41.58;31.67;;;7.30;73.80;;;;;;10941801;32;20023;-71
2022/03/03 05:40:05;;;;;;;26.45;21.50;;;7.20;73.80;;;;;;10945712;32;20046;-71
2022/03/03 05:46:08;;;;;;;30.65;23.00;;;7.30;73.50;;;;;;10946256;32;20024;-71
2022/03/03 05:53:05;;;;;;;39.28;28.52;;;7.50;73.40;;;;;;10948707;32;20015;-71
2022/03/03 05:59:10;;;;;;;29.83;24.12;;;7.50;73.00;;;;;;10949401;32;20019;-71
2022/03/03 06:05:13;;;;;;;33.10;22.95;;;7.60;73.10;;;;;;10949141;32;20303;-72
2022/03/03 06:11:20;;;;;;;35.75;27.45;;;7.60;73.40;;;;;;10943659;32;20054;-71
2022/03/03 06:17:24;;;;;;;38.30;28.55;;;7.70;73.50;;;;;;10947680;32;20080;-71
2022/03/03 06:23:52;;;;;;;27.52;21.50;;;7.80;73.40;;;;;;10948604;32;20049;-72
2022/03/03 06:29:56;;;;;;;27.77;21.50;;;7.90;73.10;;;;;;10948191;32;20387;-71
2022/03/03 06:35:59;;;;;;;28.55;22.30;;;8.10;73.10;;;;;;10947156;32;20387;-71
2022/03/03 06:42:08;;;;;;;31.10;22.92;;;8.20;73.10;;;;;;10945676;32;20054;-71
2022/03/03 06:48:11;;;;;;;39.63;26.67;;;8.20;72.90;;;;;;10947455;32;20050;-71
2022/03/03 06:54:17;;;;;;;30.98;22.30;;;8.30;72.80;;;;;;10945136;32;20035;-71
2022/03/03 07:00:22;;;;;;;29.17;23.52;;;8.50;72.40;;;;;;10946811;32;20392;-72
2022/03/03 07:06:26;;;;;;;29.58;20.52;;;8.70;72.50;;;;;;10941922;32;20051;-71
2022/03/03 07:12:33;;;;;;;28.58;20.85;;;8.70;72.30;;;;;;10945238;32;20382;-72
2022/03/03 07:19:03;;;;;;;30.77;25.55;;;8.80;72.30;;;;;;10943945;32;20030;-73
2022/03/03 07:25:54;;;;;;;26.40;20.05;;;9.00;72.00;;;;;;10921526;32;20012;-73
2022/03/03 07:31:59;;;;;;;27.37;20.05;;;9.00;71.60;;;;;;10919819;32;20035;-72
2022/03/03 07:38:12;;;;;;;31.85;20.12;;;9.10;71.80;;;;;;10907580;32;20019;-72
2022/03/03 07:44:14;;;;;;;26.37;19.90;;;9.10;71.70;;;;;;10907052;32;20442;-73
2022/03/03 07:50:17;;;;;;;29.20;22.67;;;9.20;71.80;;;;;;10906969;32;20070;-73
2022/03/03 07:56:27;;;;;;;22.92;16.20;;;9.20;72.00;;;;;;10921909;32;20066;-72
2022/03/03 08:02:32;;;;;;;19.67;14.25;;;9.30;71.70;;;;;;10906628;32;20054;-71
2022/03/03 08:08:35;;;;;;;26.70;17.23;;;9.40;71.60;;;;;;10906338;32;20085;-74
2022/03/03 08:14:37;;;;;;;29.05;21.60;;;9.40;71.50;;;;;;10905223;32;20023;-74
2022/03/03 08:20:40;;;;;;;26.73;20.33;;;9.50;71.50;;;;;;10901733;32;20027;-74
2022/03/03 08:26:45;;;;;;;27.70;18.87;;;9.50;71.70;;;;;;10904854;32;20046;-74
2022/03/03 08:33:20;;;;;;;21.40;14.95;;;9.70;71.40;;;;;;10904117;32;20354;-73
2022/03/03 08:39:27;;;;;;;27.17;20.92;;;9.70;71.20;;;;;;10904693;32;20050;-73
2022/03/03 08:45:32;;;;;;;20.42;14.70;;;9.80;71.10;;;;;;10904808;32;20371;-74
2022/03/03 08:51:36;;;;;;;24.65;17.33;;;9.80;71.00;;;;;;10904532;32;20023;-73
2022/03/03 08:57:40;;;;;;;19.80;13.82;;;9.70;71.40;;;;;;10904565;32;20031;-73
2022/03/03 09:03:43;;;;;;;22.08;14.90;;;9.70;71.40;;;;;;10900727;32;20028;-74
2022/03/03 09:10:08;;;;;;;20.33;14.35;;;10.00;71.10;;;;;;10904257;32;20058;-74
2022/03/03 09:16:13;;;;;;;22.05;13.05;;;10.10;71.00;;;;;;10899428;32;20061;-74
2022/03/03 09:22:17;;;;;;;20.80;14.23;;;10.20;70.70;;;;;;10904030;32;20023;-74
2022/03/03 09:28:20;;;;;;;17.75;14.07;;;10.10;71.00;;;;;;10904001;32;20031;-73
2022/03/03 09:34:23;;;;;;;23.80;15.18;;;10.10;70.50;;;;;;10901504;32;20050;-73
2022/03/03 09:40:28;;;;;;;40.30;29.02;;;9.90;70.20;;;;;;10903801;32;20016;-73
2022/03/03 09:46:36;;;;;;;28.95;18.42;;;9.90;70.40;;;;;;10899318;32;20027;-73
2022/03/03 09:52:42;;;;;;;30.58;20.77;;;10.00;70.90;;;;;;10901741;32;20023;-73
2022/03/03 09:58:45;;;;;;;30.27;18.60;;;10.10;70.40;;;;;;10902894;32;20348;-73
2022/03/03 10:04:54;;;;;;;24.15;17.37;;;10.00;70.10;;;;;;10903302;32;20019;-73
2022/03/03 10:11:01;;;;;;;15.32;11.50;;;10.30;70.70;;;;;;10903214;32;20031;-72
2022/03/03 10:17:05;;;;;;;19.92;12.48;;;10.50;69.90;;;;;;10896903;32;20023;-71
2022/03/03 10:23:09;;;;;;;27.17;16.33;;;10.40;69.30;;;;;;10899751;32;20054;-72
2022/03/03 10:29:19;;;;;;;29.87;22.75;;;10.50;69.50;;;;;;10895648;32;20371;-73
2022/03/03 10:35:24;;;;;;;27.45;20.80;;;10.60;69.50;;;;;;10908712;32;20054;-71
2022/03/03 10:41:36;;;;;;;19.62;12.50;;;10.80;69.00;;;;;;10908988;32;20015;-71
2022/03/03 10:47:44;;;;;;;27.37;19.87;;;10.90;68.50;;;;;;10909789;32;20019;-71
2022/03/03 10:53:47;;;;;;;23.30;13.90;;;11.00;68.40;;;;;;10896223;32;20057;-72
2022/03/03 10:59:49;;;;;;;25.70;14.85;;;11.20;67.80;;;;;;10909629;32;20042;-71
2022/03/03 11:05:54;;;;;;;30.85;24.12;;;11.50;67.50;;;;;;10909127;32;20038;-71
2022/03/03 11:11:57;;;;;;;28.73;21.10;;;11.50;67.00;;;;;;10908481;32;20081;-71
2022/03/03 11:19:04;;;;;;;18.80;15.38;;;11.60;66.30;;;;;;10904363;32;20050;-72
2022/03/03 11:25:14;;;;;;;25.80;19.05;;;12.00;65.40;;;;;;10907728;32;20031;-71
2022/03/03 11:31:30;;;;;;;21.60;15.43;;;12.20;64.80;;;;;;10907976;32;20335;-74
2022/03/03 11:38:06;;;;;;;22.05;16.77;;;12.40;63.50;;;;;;10907026;32;20031;-73
2022/03/03 11:44:13;;;;;;;18.37;12.40;;;12.70;63.20;;;;;;10907155;32;20027;-74
2022/03/03 11:50:24;;;;;;;24.20;17.35;;;13.00;63.00;;;;;;10902745;32;20316;-73
2022/03/03 11:56:26;;;;;;;31.15;23.42;;;13.20;61.00;;;;;;10907555;32;20316;-71
2022/03/03 12:02:32;;;;;;;29.10;16.87;;;13.20;59.60;;;;;;10906519;32;20392;-71
2022/03/03 12:09:14;;;;;;;20.40;14.30;;;13.20;59.50;;;;;;10898331;32;20086;-71
2022/03/03 12:15:16;;;;;;;19.62;15.00;;;13.30;59.10;;;;;;10902543;32;20031;-70
2022/03/03 12:28:47;;;;;;;32.33;22.87;;;13.50;58.30;;;;;;10906223;32;20061;-71
2022/03/03 12:35:47;;;;;;;24.58;17.12;;;13.80;58.00;;;;;;10905821;32;20050;-71
2022/03/03 12:41:57;;;;;;;39.35;29.33;;;13.90;58.20;;;;;;10905521;32;20042;-71
2022/03/03 12:48:00;;;;;;;28.02;19.92;;;13.80;56.90;;;;;;10904086;32;20027;-70
2022/03/03 12:54:04;;;;;;;32.15;25.85;;;13.80;57.60;;;;;;10905485;32;20433;-70
2022/03/03 13:00:12;;;;;;;26.52;19.95;;;13.90;57.10;;;;;;10905260;32;20058;-70
2022/03/03 13:06:33;;;;;;;23.55;17.37;;;14.00;56.50;;;;;;10904236;32;20348;-70
2022/03/03 13:12:45;;;;;;;27.05;20.48;;;14.10;57.30;;;;;;10934210;32;20089;-70
2022/03/03 13:18:49;;;;;;;26.27;19.40;;;14.10;55.70;;;;;;10505369;27;11996479;-71
2022/03/03 13:25:18;;;;;;;28.10;19.42;;;14.20;55.40;;;;;;10863674;32;20336;-71
2022/03/03 13:31:23;;;;;;;20.48;14.73;;;14.20;55.60;;;;;;10864232;32;20039;-71
2022/03/03 13:38:03;;;;;;;32.10;26.95;;;14.50;55.50;;;;;;10862996;32;20067;-70
2022/03/03 13:44:19;;;;;;;26.87;21.83;;;14.50;53.40;;;;;;10918847;32;20031;-70
2022/03/03 13:50:21;;;;;;;22.27;16.62;;;14.30;53.40;;;;;;10937215;32;20019;-71
2022/03/03 13:56:32;;;;;;;25.85;18.30;;;14.40;54.40;;;;;;10942015;32;20022;-72
2022/03/03 14:02:35;;;;;;;25.30;16.17;;;14.70;55.30;;;;;;10947263;32;20031;-71
2022/03/03 14:08:45;;;;;;;37.05;28.92;;;14.70;53.90;;;;;;10948744;32;20028;-70
2022/03/03 14:14:47;;;;;;;30.12;19.60;;;14.70;52.00;;;;;;10946489;32;20354;-71
2022/03/03 14:20:49;;;;;;;30.50;23.42;;;14.70;53.60;;;;;;10948107;32;20062;-71
2022/03/03 14:26:51;;;;;;;31.10;23.35;;;14.70;54.90;;;;;;10948218;32;20378;-71
2022/03/03 14:32:53;;;;;;;21.92;17.23;;;15.00;54.10;;;;;;10947753;32;20031;-71
2022/03/03 14:38:58;;;;;;;21.15;15.38;;;15.10;53.70;;;;;;10946123;32;20489;-71
2022/03/03 14:45:00;;;;;;;21.73;15.82;;;15.10;53.90;;;;;;10927634;32;20057;-71
2022/03/03 14:51:05;;;;;;;20.35;16.67;;;15.30;54.20;;;;;;10923869;32;20023;-71
2022/03/03 14:57:07;;;;;;;13.82;10.88;;;15.40;55.40;;;;;;10929406;32;20035;-71
2022/03/03 15:03:10;;;;;;;27.05;23.08;;;15.40;56.10;;;;;;10932588;32;20027;-71
2022/03/03 15:09:12;;;;;;;30.65;25.60;;;15.40;57.90;;;;;;10942090;32;20479;-71
2022/03/03 15:15:14;;;;;;;24.73;21.60;;;15.50;58.50;;;;;;10928240;32;20327;-71
2022/03/03 15:21:17;;;;;;;34.15;25.98;;;15.60;58.30;;;;;;10942449;32;20058;-72
2022/03/03 15:27:30;;;;;;;25.85;20.30;;;15.60;58.70;;;;;;10929093;32;20019;-71
2022/03/03 15:39:53;;;;;;;23.45;16.08;;;16.30;58.10;;;;;;10940197;32;20323;-73
2022/03/03 15:45:55;;;;;;;22.85;16.52;;;16.50;57.60;;;;;;10944001;32;20050;-73
2022/03/03 15:51:58;;;;;;;28.27;23.60;;;16.70;57.00;;;;;;10944415;32;20052;-73
2022/03/03 15:58:00;;;;;;;24.08;20.25;;;16.80;56.80;;;;;;10944443;32;20026;-73
2022/03/03 16:04:05;;;;;;;16.40;11.55;;;16.80;56.70;;;;;;10943889;32;20023;-72
2022/03/03 16:10:08;;;;;;;16.62;12.20;;;16.80;56.40;;;;;;10941855;32;20035;-73
2022/03/03 16:16:10;;;;;;;18.73;13.07;;;16.50;56.80;;;;;;10943260;32;20023;-73
2022/03/03 16:22:12;;;;;;;24.02;18.17;;;16.30;57.40;;;;;;10942482;32;20019;-73
2022/03/03 16:28:15;;;;;;;21.17;14.15;;;15.80;57.30;;;;;;10943053;32;20027;-73
2022/03/03 16:34:18;;;;;;;17.55;14.20;;;15.70;58.50;;;;;;10942965;32;20387;-73
2022/03/03 16:40:20;;;;;;;17.65;9.13;;;15.50;59.10;;;;;;10928481;32;20050;-73
2022/03/03 16:46:22;;;;;;;14.38;10.85;;;14.90;60.00;;;;;;10942262;32;20049;-73
2022/03/03 16:52:24;;;;;;;14.40;11.02;;;14.30;61.00;;;;;;10941205;32;20061;-73
2022/03/03 16:58:27;;;;;;;14.48;10.48;;;13.90;61.70;;;;;;10905905;32;20100;-72
2022/03/03 17:04:29;;;;;;;14.85;10.52;;;13.60;62.30;;;;;;10904076;32;20399;-73
2022/03/03 17:10:31;;;;;;;13.13;8.32;;;13.30;63.50;;;;;;10900581;32;20125;-73
2022/03/03 17:16:34;;;;;;;11.12;7.80;;;13.30;64.10;;;;;;10904295;32;20023;-73
2022/03/03 17:22:37;;;;;;;14.73;8.27;;;13.30;64.40;;;;;;10904119;32;20058;-72
2022/03/03 17:28:39;;;;;;;14.07;9.77;;;13.30;64.10;;;;;;10904165;32;20379;-73
2022/03/03 17:35:02;;;;;;;10.35;7.20;;;13.20;64.10;;;;;;10906163;32;20019;-72
2022/03/03 17:41:04;;;;;;;12.63;9.52;;;13.20;64.20;;;;;;10917641;32;20425;-73
2022/03/03 17:47:07;;;;;;;16.60;12.10;;;13.10;64.60;;;;;;10945383;32;20066;-71
2022/03/03 17:53:09;;;;;;;15.23;10.77;;;13.00;65.30;;;;;;10946141;32;20039;-71
2022/03/03 17:59:12;;;;;;;20.77;13.35;;;13.00;65.60;;;;;;10949613;32;20399;-71
2022/03/03 18:05:24;;;;;;;23.65;15.90;;;13.00;66.30;;;;;;10949198;32;20058;-71
2022/03/03 18:11:27;;;;;;;19.60;13.90;;;12.90;66.50;;;;;;10948894;32;20035;-71
2022/03/03 18:17:29;;;;;;;21.12;15.90;;;12.90;66.10;;;;;;10948800;32;20023;-71
2022/03/03 18:23:31;;;;;;;21.67;16.87;;;12.80;66.60;;;;;;10948787;32;20038;-70
2022/03/03 18:29:33;;;;;;;24.10;15.52;;;12.70;67.00;;;;;;10948417;32;20035;-71
2022/03/03 18:35:35;;;;;;;19.42;14.07;;;12.70;67.30;;;;;;10948409;32;20300;-71
2022/03/03 18:41:38;;;;;;;20.17;14.95;;;12.60;67.00;;;;;;10948278;32;20050;-71
2022/03/03 18:47:54;;;;;;;20.58;15.80;;;12.50;67.40;;;;;;10946956;32;20018;-71
2022/03/03 18:54:00;;;;;;;16.08;10.25;;;12.40;67.10;;;;;;10947677;32;20027;-71
2022/03/03 19:00:22;;;;;;;14.57;12.32;;;12.30;67.10;;;;;;10947337;32;20062;-71
2022/03/03 19:06:25;;;;;;;15.85;11.15;;;12.20;67.20;;;;;;10943309;32;20023;-71
2022/03/03 19:12:27;;;;;;;15.13;11.50;;;12.00;67.40;;;;;;10946647;32;20082;-73
2022/03/03 19:18:29;;;;;;;14.90;9.70;;;12.00;67.50;;;;;;10946158;32;20041;-72
2022/03/03 19:24:33;;;;;;;14.40;9.57;;;11.90;67.50;;;;;;10932441;32;20022;-72
2022/03/03 19:30:50;;;;;;;14.75;9.75;;;11.80;67.50;;;;;;10945696;32;20051;-73
2022/03/03 19:36:56;;;;;;;12.82;8.98;;;11.70;67.80;;;;;;10940330;32;20065;-72
2022/03/03 19:42:58;;;;;;;11.90;8.63;;;11.50;68.00;;;;;;10944673;32;20023;-72
2022/03/03 19:49:01;;;;;;;13.70;11.30;;;11.50;68.10;;;;;;10945067;32;20023;-73
2022/03/03 19:55:04;;;;;;;16.62;11.93;;;11.50;68.10;;;;;;10921665;32;20042;-73
2022/03/03 20:01:06;;;;;;;22.02;15.70;;;11.50;68.20;;;;;;10906693;32;20061;-73
2022/03/03 20:07:09;;;;;;;22.50;17.92;;;11.50;68.30;;;;;;10909922;32;20050;-72
2022/03/03 20:13:11;;;;;;;21.58;16.67;;;11.50;68.10;;;;;;10906517;32;20031;-72
2022/03/03 20:19:15;;;;;;;25.30;17.52;;;11.50;68.00;;;;;;10906381;32;20533;-73
2022/03/03 20:25:17;;;;;;;29.67;22.65;;;11.40;68.10;;;;;;10890437;32;20081;-73
2022/03/03 20:31:19;;;;;;;46.10;34.13;;;11.20;68.80;;;;;;10905837;32;20027;-73
2022/03/03 20:37:22;;;;;;;23.02;15.38;;;11.10;69.40;;;;;;10905682;32;20058;-73
2022/03/03 20:43:24;;;;;;;23.27;18.50;;;10.70;70.80;;;;;;10905535;32;20015;-72
2022/03/03 20:49:26;;;;;;;24.02;13.35;;;10.90;71.30;;;;;;10904250;32;20058;-72
2022/03/03 20:55:45;;;;;;;19.75;14.35;;;10.90;71.80;;;;;;10905141;32;20034;-73
2022/03/03 21:01:49;;;;;;;31.20;25.10;;;11.00;71.10;;;;;;10905173;32;20059;-73
2022/03/03 21:07:51;;;;;;;34.63;25.70;;;11.20;71.30;;;;;;10904652;32;20042;-73
2022/03/03 21:13:54;;;;;;;33.53;28.00;;;11.20;71.10;;;;;;10908224;27;20395;-73
2022/03/03 21:19:56;;;;;;;25.17;19.00;;;11.20;70.70;;;;;;10941612;32;20049;-71
2022/03/03 21:26:02;;;;;;;25.70;19.02;;;11.20;70.50;;;;;;10942426;32;20024;-71
2022/03/03 21:32:10;;;;;;;23.15;17.27;;;11.00;70.70;;;;;;10928832;32;20374;-71
2022/03/03 21:38:12;;;;;;;32.25;23.00;;;11.00;70.70;;;;;;10942377;32;20050;-71
2022/03/03 21:44:18;;;;;;;26.33;18.83;;;11.00;70.60;;;;;;10941995;32;20026;-71
2022/03/03 21:50:20;;;;;;;23.87;18.35;;;10.90;70.50;;;;;;10928649;32;20039;-71
2022/03/03 21:56:23;;;;;;;30.70;22.67;;;10.80;70.60;;;;;;10937773;32;20411;-71
2022/03/03 22:02:25;;;;;;;24.75;18.65;;;10.80;70.90;;;;;;10941933;32;20054;-71
2022/03/03 22:08:27;;;;;;;24.65;18.95;;;10.60;71.80;;;;;;10940951;32;20434;-71
2022/03/03 22:14:29;;;;;;;36.08;27.95;;;10.70;72.30;;;;;;10940934;32;20073;-71
2022/03/03 22:20:32;;;;;;;32.58;25.45;;;10.70;71.90;;;;;;10929847;32;20049;-71
2022/03/03 22:26:34;;;;;;;36.20;26.00;;;10.60;71.60;;;;;;10949044;32;20042;-72
2022/03/03 22:32:39;;;;;;;28.42;21.30;;;10.50;72.00;;;;;;10948545;32;20026;-72
2022/03/03 22:38:41;;;;;;;28.73;21.33;;;10.30;72.20;;;;;;10948152;32;20020;-73
2022/03/03 22:44:43;;;;;;;34.15;21.60;;;10.30;72.40;;;;;;10945435;32;20027;-73
2022/03/03 22:57:06;;;;;;;19.70;15.27;;;10.30;72.50;;;;;;10947059;32;20019;-73
2022/03/03 23:09:29;;;;;;;24.45;17.50;;;10.30;72.40;;;;;;10942908;32;20030;-73
2022/03/03 23:15:32;;;;;;;21.37;15.40;;;10.40;72.20;;;;;;10946290;32;20046;-73
2022/03/03 23:21:35;;;;;;;29.83;15.35;;;10.30;72.20;;;;;;10946100;32;20049;-73
2022/03/03 23:27:38;;;;;;;24.73;18.27;;;10.40;72.40;;;;;;10945873;32;20053;-73
2022/03/03 23:33:40;;;;;;;29.80;23.20;;;10.30;72.50;;;;;;10942377;32;20050;-73
2022/03/03 23:39:42;;;;;;;24.40;18.15;;;10.20;72.90;;;;;;10945513;32;20027;-73
2022/03/03 23:45:44;;;;;;;29.98;17.95;;;10.10;73.20;;;;;;10945408;32;20019;-73
2022/03/03 23:51:46;;;;;;;21.33;13.77;;;10.20;73.50;;;;;;10943845;32;20058;-72
2022/03/03 23:57:48;;;;;;;18.73;14.95;;;10.20;73.50;;;;;;10944970;32;20069;-73
